Terminal Aerodrome Forecast
Issued by NWS Buffalo, NY

Home | Current Version | Previous Version | Text Only | Print | Product List | Glossary On
Versions: 1 2 3 4 5 6 7 8 9 10 11 12 13 14 15 16 17 18 19 20 21 22 23 24
000
FTUS41 KBUF 301738
TAFART
TAF
KART 301738Z 3018/3118 01008KT P6SM BKN150
     FM310300 06005KT P6SM BKN100
     FM311000 09006KT P6SM VCSH OVC060
     FM311400 08008KT 6SM -SHRA OVC035=

USA.gov is the U.S. government's official web portal to all federal, state and local government web resources and services.